KDAY/DAY METAR and TAF weather

Enter ICAO airport designator
Station Type Date Time Source
KDAY METAR 2019/12/12 11:56 UTC NOAA

KDAY 121156Z 13010KT 8SM FEW250 M06/M09 A3053 RMK AO2 SLP352 T10561089 11056 21067 58005


Station Type Date Time Source
KDAY Decoded METAR 2019/12/12 11:56 UTC NOAA

COX DAYTON INTERNATIONAL, OH, United States (KDAY) 39-54N 084-13W 305M
Dec 12, 2019 - 06:56 AM EST / 2019.12.12 1156 UTC
Wind: from the SE (130 degrees) at 12 MPH (10 KT):0
Visibility: 8 mile(s):0
Sky conditions: mostly clear
Temperature: 21.9 F (-5.6 C)
Windchill: 10 F (-12 C):1
Dew Point: 16.0 F (-8.9 C)
Relative Humidity: 77%
Pressure (altimeter): 30.53 in. Hg (1033 hPa)
Pressure tendency: 0.01 inches (0.5 hPa) lower than three hours ago
ob: KDAY 121156Z 13010KT 8SM FEW250 M06/M09 A3053 RMK AO2 SLP352 T10561089 11056 21067 58005
cycle: 12

Station Type Date Time Source
KDAY TAF 2019/12/12 12:22 UTC NOAA

TAF KDAY 121120Z 1212/1312 14008KT P6SM SCT250
FM121700 16009KT P6SM BKN250
FM130600 18008KT P6SM SCT250

Example: see airport list